createdAt,value
2018-12-05T00:00:14.070Z,14.00
2018-12-05T00:02:42.521Z,14.00
2018-12-05T00:05:11.300Z,14.00
2018-12-05T00:07:39.978Z,14.00
2018-12-05T00:10:08.724Z,14.00
2018-12-05T00:12:37.529Z,14.00
2018-12-05T00:15:06.266Z,13.90
2018-12-05T00:17:34.796Z,13.90
2018-12-05T00:20:05.326Z,13.90
2018-12-05T00:22:33.837Z,13.90
2018-12-05T00:25:02.546Z,13.90
2018-12-05T00:27:31.294Z,13.90
2018-12-05T00:29:59.797Z,13.90
2018-12-05T00:32:28.214Z,13.80
2018-12-05T00:34:56.620Z,13.80
2018-12-05T00:37:25.328Z,13.80
2018-12-05T00:39:54.026Z,13.80
2018-12-05T00:42:22.836Z,13.80
2018-12-05T00:44:51.246Z,13.80
2018-12-05T00:47:19.983Z,13.80
2018-12-05T00:49:49.357Z,13.80
2018-12-05T00:52:18.091Z,13.70
2018-12-05T00:54:46.800Z,13.70
2018-12-05T00:57:15.339Z,13.70
2018-12-05T00:59:43.721Z,13.70
2018-12-05T01:02:12.159Z,13.70
2018-12-05T01:04:40.569Z,13.70
2018-12-05T01:07:08.989Z,13.70
2018-12-05T01:09:39.670Z,13.70
2018-12-05T01:12:09.603Z,13.70
2018-12-05T01:14:38.041Z,13.70
2018-12-05T01:17:06.486Z,13.70
2018-12-05T01:19:34.911Z,13.60
2018-12-05T01:22:03.563Z,13.60
2018-12-05T01:24:32.362Z,13.60
2018-12-05T01:27:01.277Z,13.60
2018-12-05T01:29:30.619Z,13.60
2018-12-05T01:31:59.039Z,13.60
2018-12-05T01:34:27.986Z,13.50
2018-12-05T01:36:57.225Z,13.50
2018-12-05T01:39:26.044Z,13.50
2018-12-05T01:41:54.776Z,13.50
2018-12-05T01:44:23.201Z,13.50
2018-12-05T01:46:51.600Z,13.50
2018-12-05T01:49:20.294Z,13.50
2018-12-05T01:51:49.126Z,13.50
2018-12-05T01:54:17.651Z,13.50
2018-12-05T01:56:46.047Z,13.50
2018-12-05T01:59:14.445Z,13.50
2018-12-05T02:01:42.864Z,13.50
2018-12-05T02:04:11.626Z,13.40
2018-12-05T02:06:40.101Z,13.40
2018-12-05T02:09:08.521Z,13.40
2018-12-05T02:11:36.923Z,13.40
2018-12-05T02:14:05.349Z,13.40
2018-12-05T02:16:34.092Z,13.40
2018-12-05T02:19:02.751Z,13.40
2018-12-05T02:21:31.412Z,13.40
2018-12-05T02:23:59.838Z,13.40
2018-12-05T02:26:28.227Z,13.40
2018-12-05T02:28:57.254Z,13.40
2018-12-05T02:31:25.866Z,13.40
2018-12-05T02:33:54.540Z,13.40
2018-12-05T02:36:23.356Z,13.40
2018-12-05T02:38:51.825Z,13.40
2018-12-05T02:41:20.273Z,13.30
2018-12-05T02:43:48.712Z,13.30
2018-12-05T02:46:17.185Z,13.30
2018-12-05T02:48:45.520Z,13.30
2018-12-05T02:51:13.946Z,13.30
2018-12-05T02:53:43.672Z,13.30
2018-12-05T02:56:12.788Z,13.30
2018-12-05T02:58:41.183Z,13.30
2018-12-05T03:01:09.721Z,13.30
2018-12-05T03:03:38.630Z,13.30
2018-12-05T03:06:07.061Z,13.20
2018-12-05T03:08:35.520Z,13.20
2018-12-05T03:11:04.184Z,13.20
2018-12-05T03:13:32.625Z,13.20
2018-12-05T03:16:01.060Z,13.20
2018-12-05T03:18:29.417Z,13.20
2018-12-05T03:20:57.849Z,13.20
2018-12-05T03:23:26.531Z,13.20
2018-12-05T03:25:54.946Z,13.20
2018-12-05T03:28:23.653Z,13.20
2018-12-05T03:30:52.087Z,13.20
2018-12-05T03:33:20.505Z,13.10
2018-12-05T03:35:48.926Z,13.10
2018-12-05T03:38:17.356Z,13.10
2018-12-05T03:40:45.799Z,13.10
2018-12-05T03:43:14.535Z,13.10
2018-12-05T03:45:42.930Z,13.10
2018-12-05T03:48:11.580Z,13.10
2018-12-05T03:50:40.149Z,13.10
2018-12-05T03:53:08.538Z,13.10
2018-12-05T03:55:37.511Z,13.10
2018-12-05T03:58:06.017Z,13.10
2018-12-05T04:00:34.419Z,13.10
2018-12-05T04:03:02.997Z,13.10
2018-12-05T04:05:31.504Z,13.00
2018-12-05T04:08:00.396Z,13.00
2018-12-05T04:10:28.790Z,13.00
2018-12-05T04:12:57.457Z,13.00
2018-12-05T04:15:26.136Z,13.00
2018-12-05T04:17:54.622Z,13.00
2018-12-05T04:20:23.057Z,13.00
2018-12-05T04:22:51.542Z,13.00
2018-12-05T04:25:20.114Z,13.00
2018-12-05T04:27:48.542Z,13.00
2018-12-05T04:30:16.940Z,13.00
2018-12-05T04:32:45.305Z,13.00
2018-12-05T04:35:13.990Z,13.00
2018-12-05T04:37:42.442Z,13.00
2018-12-05T04:40:10.868Z,13.00
2018-12-05T04:42:39.606Z,13.00
2018-12-05T04:45:07.995Z,12.90
2018-12-05T04:47:36.389Z,12.90
2018-12-05T04:50:05.543Z,12.90
2018-12-05T04:52:34.194Z,12.90
2018-12-05T04:55:02.729Z,12.90
2018-12-05T04:57:31.140Z,12.90
2018-12-05T04:59:59.550Z,12.90
2018-12-05T05:02:27.919Z,12.90
2018-12-05T05:04:56.351Z,12.90
2018-12-05T05:07:24.818Z,12.90
2018-12-05T05:09:53.595Z,12.90
2018-12-05T05:12:21.992Z,12.90
2018-12-05T05:14:50.366Z,12.90
2018-12-05T05:17:18.935Z,12.90
2018-12-05T05:19:47.320Z,12.90
2018-12-05T05:22:15.734Z,12.90
2018-12-05T05:24:44.331Z,12.90
2018-12-05T05:27:12.806Z,12.90
2018-12-05T05:29:41.340Z,12.80
2018-12-05T05:32:09.716Z,12.80
2018-12-05T05:34:38.327Z,12.80
2018-12-05T05:37:06.803Z,12.80
2018-12-05T05:39:35.193Z,12.80
2018-12-05T05:42:03.619Z,12.80
2018-12-05T05:44:32.036Z,12.80
2018-12-05T05:47:00.461Z,12.80
2018-12-05T05:49:28.904Z,12.80
2018-12-05T05:51:57.579Z,12.80
2018-12-05T05:54:26.245Z,12.80
2018-12-05T05:56:54.517Z,12.80
2018-12-05T05:59:22.904Z,12.80
2018-12-05T06:01:51.344Z,12.80
2018-12-05T06:04:19.755Z,12.80
2018-12-05T06:06:48.151Z,12.80
2018-12-05T06:09:16.614Z,12.70
2018-12-05T06:11:45.048Z,12.70
2018-12-05T06:14:13.453Z,12.70
2018-12-05T06:16:42.188Z,12.70
2018-12-05T06:19:10.565Z,12.70
2018-12-05T06:21:39.094Z,12.70
2018-12-05T06:24:07.495Z,12.70
2018-12-05T06:26:36.123Z,12.70
2018-12-05T06:29:04.591Z,12.70
2018-12-05T06:31:33.215Z,12.70
2018-12-05T06:34:01.636Z,12.70
2018-12-05T06:36:30.339Z,12.70
2018-12-05T06:38:59.523Z,12.70
2018-12-05T06:41:28.379Z,12.70
2018-12-05T06:43:57.213Z,12.70
2018-12-05T06:46:25.660Z,12.60
2018-12-05T06:48:54.089Z,12.60
2018-12-05T06:51:22.507Z,12.60
2018-12-05T06:53:51.000Z,12.60
2018-12-05T06:56:19.454Z,12.60
2018-12-05T06:58:47.754Z,12.60
2018-12-05T07:01:16.245Z,12.60
2018-12-05T07:03:44.972Z,12.60
2018-12-05T07:06:13.864Z,12.60
2018-12-05T07:08:42.583Z,12.60
2018-12-05T07:11:11.028Z,12.60
2018-12-05T07:13:39.449Z,12.70
2018-12-05T07:16:07.812Z,12.60
2018-12-05T07:18:36.317Z,12.70
2018-12-05T07:21:05.296Z,12.70
2018-12-05T07:23:33.860Z,12.70
2018-12-05T07:26:02.400Z,12.70
2018-12-05T07:28:30.854Z,12.70
2018-12-05T07:30:59.201Z,12.70
2018-12-05T07:33:27.591Z,12.70
2018-12-05T07:35:56.643Z,12.70
2018-12-05T07:38:26.269Z,12.70
2018-12-05T07:40:55.423Z,12.70
2018-12-05T07:43:23.831Z,12.80
2018-12-05T07:45:52.332Z,12.80
2018-12-05T07:48:20.714Z,12.80
2018-12-05T07:50:49.138Z,12.80
2018-12-05T07:53:17.534Z,12.90
2018-12-05T07:55:45.955Z,12.90
2018-12-05T07:58:14.259Z,12.90
2018-12-05T08:00:42.726Z,13.00
2018-12-05T08:06:10.536Z,13.80
2018-12-05T08:08:39.315Z,14.00
2018-12-05T08:11:08.077Z,14.00
2018-12-05T08:13:37.242Z,14.00
2018-12-05T08:16:05.804Z,14.00
2018-12-05T08:18:34.846Z,14.00
2018-12-05T08:21:03.685Z,14.00
2018-12-05T08:23:32.905Z,14.10
2018-12-05T08:26:02.386Z,14.30
2018-12-05T08:28:30.859Z,14.80
2018-12-05T08:30:59.745Z,15.30
2018-12-05T08:33:29.526Z,15.80
2018-12-05T08:35:58.079Z,16.40
2018-12-05T08:38:26.356Z,17.00
2018-12-05T08:40:54.759Z,17.50
2018-12-05T08:43:23.419Z,18.00
2018-12-05T08:45:51.838Z,18.50
2018-12-05T08:48:20.248Z,18.90
2018-12-05T08:50:48.641Z,19.30
2018-12-05T08:53:17.056Z,19.70
2018-12-05T08:55:45.525Z,20.10
2018-12-05T08:58:14.006Z,20.50
2018-12-05T09:00:42.482Z,20.90
2018-12-05T09:03:10.874Z,21.40
2018-12-05T09:05:39.417Z,21.90
2018-12-05T09:08:07.748Z,22.40
2018-12-05T09:10:36.535Z,22.90
2018-12-05T09:13:05.421Z,23.30
2018-12-05T09:15:34.212Z,23.60
2018-12-05T09:18:04.030Z,23.90
2018-12-05T09:20:32.625Z,24.20
2018-12-05T09:23:01.482Z,24.40
2018-12-05T09:25:30.340Z,24.60
2018-12-05T09:27:58.771Z,24.90
2018-12-05T09:30:27.153Z,25.20
2018-12-05T09:32:56.758Z,25.40
2018-12-05T09:35:26.028Z,25.80
2018-12-05T09:37:54.653Z,26.00
2018-12-05T09:40:23.388Z,26.30
2018-12-05T09:42:52.278Z,26.60
2018-12-05T09:45:20.724Z,26.80
2018-12-05T09:47:49.165Z,27.00
2018-12-05T09:50:19.478Z,27.20
2018-12-05T09:52:48.575Z,27.40
2018-12-05T09:55:17.256Z,27.60
2018-12-05T09:57:46.238Z,27.70
2018-12-05T10:00:14.868Z,27.80
2018-12-05T10:02:43.699Z,28.00
2018-12-05T10:05:12.790Z,28.10
2018-12-05T10:07:41.706Z,28.20
2018-12-05T10:10:10.708Z,28.30
2018-12-05T10:12:39.787Z,28.40
2018-12-05T10:15:08.796Z,28.50
2018-12-05T10:17:37.501Z,28.60
2018-12-05T10:20:06.478Z,28.70
2018-12-05T10:22:35.200Z,28.80
2018-12-05T10:25:05.413Z,28.90
2018-12-05T10:27:34.052Z,29.00
2018-12-05T10:30:02.526Z,29.20
2018-12-05T10:32:31.159Z,29.20
2018-12-05T10:35:00.310Z,29.40
2018-12-05T10:37:30.161Z,29.50
2018-12-05T10:39:58.983Z,29.50
2018-12-05T10:42:27.517Z,29.70
2018-12-05T10:44:55.905Z,29.80
2018-12-05T10:47:24.261Z,30.00
2018-12-05T10:49:52.663Z,30.20
2018-12-05T10:52:21.065Z,30.30
2018-12-05T10:54:49.495Z,30.50
2018-12-05T10:57:17.872Z,30.60
2018-12-05T10:59:46.354Z,30.80
2018-12-05T11:02:20.826Z,30.90
2018-12-05T11:04:56.157Z,31.10
2018-12-05T11:07:30.934Z,31.20
2018-12-05T11:10:05.597Z,31.40
2018-12-05T11:12:42.437Z,31.50
2018-12-05T11:15:16.841Z,31.70
2018-12-05T11:17:47.800Z,31.80
2018-12-05T11:20:21.998Z,31.90
2018-12-05T11:22:56.109Z,32.10
2018-12-05T11:25:25.606Z,32.30
2018-12-05T11:27:54.109Z,32.50
2018-12-05T11:30:22.813Z,32.60
2018-12-05T11:32:52.260Z,32.80
2018-12-05T11:35:21.781Z,33.00
2018-12-05T11:37:50.387Z,33.00
2018-12-05T11:40:18.806Z,33.20
2018-12-05T11:42:47.267Z,33.30
2018-12-05T11:45:15.738Z,33.40
2018-12-05T11:47:44.486Z,33.50
2018-12-05T11:50:13.465Z,33.50
2018-12-05T11:52:42.401Z,33.60
2018-12-05T11:55:12.153Z,33.60
2018-12-05T11:57:40.972Z,33.70
2018-12-05T12:00:09.542Z,33.80
2018-12-05T12:02:38.657Z,33.80
2018-12-05T12:05:07.446Z,33.80
2018-12-05T12:07:36.251Z,34.00
2018-12-05T12:10:05.939Z,34.00
2018-12-05T12:15:33.309Z,33.90
2018-12-05T12:18:02.254Z,33.80
2018-12-05T12:20:31.878Z,33.80
2018-12-05T12:23:00.549Z,33.80
2018-12-05T12:25:29.434Z,33.70
2018-12-05T12:27:58.469Z,33.70
2018-12-05T12:30:27.008Z,33.60
2018-12-05T12:32:55.982Z,33.50
2018-12-05T12:35:24.552Z,33.40
2018-12-05T12:37:53.095Z,33.30
2018-12-05T12:40:21.612Z,33.20
2018-12-05T12:42:50.061Z,33.10
2018-12-05T12:45:25.811Z,33.00
2018-12-05T12:47:56.181Z,32.80
2018-12-05T12:50:24.653Z,32.70
2018-12-05T12:52:53.134Z,32.70
2018-12-05T12:55:21.596Z,32.70
2018-12-05T12:57:50.022Z,32.60
2018-12-05T13:00:18.479Z,32.40
2018-12-05T13:02:46.883Z,32.20
2018-12-05T13:05:15.300Z,31.80
2018-12-05T13:07:43.630Z,31.40
2018-12-05T13:10:12.067Z,31.10
2018-12-05T13:12:40.579Z,30.70
2018-12-05T13:15:09.304Z,30.50
2018-12-05T13:17:38.271Z,30.20
2018-12-05T13:20:06.803Z,30.10
2018-12-05T13:22:35.243Z,30.00
2018-12-05T13:25:03.946Z,30.00
2018-12-05T13:27:33.197Z,29.90
2018-12-05T13:30:01.559Z,29.80
2018-12-05T13:32:30.019Z,29.70
2018-12-05T13:34:58.543Z,29.60
2018-12-05T13:37:27.374Z,29.50
2018-12-05T13:39:55.938Z,29.40
2018-12-05T13:42:24.604Z,29.30
2018-12-05T13:44:53.290Z,29.30
2018-12-05T13:47:21.669Z,29.20
2018-12-05T13:49:50.235Z,29.20
2018-12-05T13:52:19.038Z,29.10
2018-12-05T13:54:47.478Z,29.10
2018-12-05T13:57:15.833Z,29.00
2018-12-05T13:59:44.246Z,28.90
2018-12-05T14:02:12.692Z,28.70
2018-12-05T14:04:41.290Z,28.60
2018-12-05T14:07:09.911Z,28.50
2018-12-05T14:09:38.514Z,28.30
2018-12-05T14:12:09.188Z,28.10
2018-12-05T14:14:37.609Z,28.00
2018-12-05T14:17:06.070Z,27.80
2018-12-05T14:19:34.569Z,27.50
2018-12-05T14:22:03.011Z,27.20
2018-12-05T14:24:31.432Z,27.00
2018-12-05T14:27:00.235Z,26.80
2018-12-05T14:29:28.843Z,26.50
2018-12-05T14:31:58.118Z,26.10
2018-12-05T14:34:26.803Z,25.80
2018-12-05T14:36:55.239Z,25.50
2018-12-05T14:39:24.298Z,25.20
2018-12-05T14:41:52.738Z,24.90
2018-12-05T14:44:21.122Z,24.60
2018-12-05T14:46:49.515Z,24.30
2018-12-05T14:49:17.939Z,24.00
2018-12-05T14:51:46.877Z,23.80
2018-12-05T14:54:15.573Z,23.50
2018-12-05T14:56:44.049Z,23.30
2018-12-05T14:59:12.454Z,23.00
2018-12-05T15:01:40.795Z,22.80
2018-12-05T15:04:09.275Z,22.60
2018-12-05T15:06:38.078Z,22.40
2018-12-05T15:09:07.501Z,22.20
2018-12-05T15:11:35.924Z,22.10
2018-12-05T15:14:04.555Z,21.90
2018-12-05T15:16:33.280Z,21.70
2018-12-05T15:19:01.796Z,21.50
2018-12-05T15:21:30.137Z,21.40
2018-12-05T15:23:58.515Z,21.30
2018-12-05T15:26:27.150Z,21.10
2018-12-05T15:28:55.545Z,20.90
2018-12-05T15:31:23.966Z,20.80
2018-12-05T15:33:52.325Z,20.70
2018-12-05T15:36:20.758Z,20.50
2018-12-05T15:38:49.152Z,20.40
2018-12-05T15:41:17.515Z,20.30
2018-12-05T15:43:45.898Z,20.20
2018-12-05T15:46:14.292Z,20.10
2018-12-05T15:48:42.695Z,20.00
2018-12-05T15:51:11.094Z,19.90
2018-12-05T15:53:39.500Z,19.80
2018-12-05T15:56:07.837Z,19.70
2018-12-05T15:58:36.265Z,19.60
2018-12-05T16:01:05.222Z,19.50
2018-12-05T16:03:33.643Z,19.40
2018-12-05T16:06:02.439Z,19.40
2018-12-05T16:08:30.817Z,19.30
2018-12-05T16:10:59.204Z,19.20
2018-12-05T16:13:27.598Z,19.10
2018-12-05T16:15:56.013Z,19.00
2018-12-05T16:18:24.436Z,18.90
2018-12-05T16:20:52.823Z,18.80
2018-12-05T16:23:21.194Z,18.70
2018-12-05T16:25:49.880Z,18.70
2018-12-05T16:28:18.257Z,18.60
2018-12-05T16:30:46.942Z,18.50
2018-12-05T16:33:15.570Z,18.50
2018-12-05T16:35:44.076Z,18.40
2018-12-05T16:38:12.687Z,18.40
2018-12-05T16:40:41.129Z,18.30
2018-12-05T16:43:09.755Z,18.30
2018-12-05T16:45:38.169Z,18.20
2018-12-05T16:48:06.594Z,18.20
2018-12-05T16:50:35.009Z,18.10
2018-12-05T16:53:03.453Z,18.10
2018-12-05T16:55:32.875Z,18.00
2018-12-05T16:58:01.282Z,18.00
2018-12-05T17:00:29.705Z,17.90
2018-12-05T17:02:58.095Z,17.90
2018-12-05T17:05:26.794Z,17.80
2018-12-05T17:07:55.204Z,17.80
2018-12-05T17:10:23.610Z,17.70
2018-12-05T17:12:52.043Z,17.70
2018-12-05T17:15:20.420Z,17.60
2018-12-05T17:17:48.931Z,17.60
2018-12-05T17:20:17.507Z,17.50
2018-12-05T17:22:46.109Z,17.50
2018-12-05T17:25:14.855Z,17.40
2018-12-05T17:27:43.353Z,17.40
2018-12-05T17:30:11.835Z,17.40
2018-12-05T17:32:40.265Z,17.30
2018-12-05T17:35:08.817Z,17.30
2018-12-05T17:37:37.337Z,17.20
2018-12-05T17:40:06.245Z,17.20
2018-12-05T17:42:34.748Z,17.10
2018-12-05T17:45:03.896Z,17.10
2018-12-05T17:47:33.492Z,17.00
2018-12-05T17:50:02.235Z,17.00
2018-12-05T17:52:31.628Z,17.00
2018-12-05T17:55:00.516Z,16.90
2018-12-05T17:57:29.190Z,16.90
2018-12-05T17:59:57.811Z,16.80
2018-12-05T18:02:26.251Z,16.80
2018-12-05T18:04:55.045Z,16.80
2018-12-05T18:07:23.467Z,16.80
2018-12-05T18:09:52.208Z,16.70
2018-12-05T18:12:20.629Z,16.70
2018-12-05T18:14:49.166Z,16.60
2018-12-05T18:17:17.641Z,16.60
2018-12-05T18:19:46.125Z,16.60
2018-12-05T18:22:14.542Z,16.50
2018-12-05T18:24:43.399Z,16.50
2018-12-05T18:27:12.062Z,16.60
2018-12-05T18:29:42.169Z,16.90
2018-12-05T18:32:10.611Z,17.20
2018-12-05T18:34:39.258Z,17.40
2018-12-05T18:37:07.662Z,17.60
2018-12-05T18:39:36.073Z,17.80
2018-12-05T18:42:04.522Z,18.00
2018-12-05T18:44:33.040Z,17.90
2018-12-05T18:47:01.791Z,17.80
2018-12-05T18:49:30.167Z,17.70
2018-12-05T18:51:58.645Z,17.50
2018-12-05T18:54:27.030Z,17.40
2018-12-05T18:56:55.311Z,17.30
2018-12-05T18:59:23.733Z,17.10
2018-12-05T19:01:52.354Z,17.00
2018-12-05T19:04:20.699Z,17.00
2018-12-05T19:06:49.159Z,16.90
2018-12-05T19:09:17.509Z,16.80
2018-12-05T19:11:45.985Z,16.80
2018-12-05T19:14:20.304Z,16.70
2018-12-05T19:16:49.097Z,16.60
2018-12-05T19:19:17.554Z,16.60
2018-12-05T19:21:45.943Z,16.50
2018-12-05T19:24:14.326Z,16.50
2018-12-05T19:26:43.527Z,16.40
2018-12-05T19:29:11.962Z,16.30
2018-12-05T19:31:40.394Z,16.30
2018-12-05T19:34:09.064Z,16.20
2018-12-05T19:36:37.505Z,16.20
2018-12-05T19:39:07.032Z,16.10
2018-12-05T19:41:35.438Z,16.10
2018-12-05T19:44:03.835Z,16.00
2018-12-05T19:46:32.267Z,15.90
2018-12-05T19:49:00.660Z,15.90
2018-12-05T19:51:29.130Z,15.90
2018-12-05T19:53:58.349Z,15.80
2018-12-05T19:56:26.713Z,15.80
2018-12-05T19:58:55.159Z,15.70
2018-12-05T20:01:24.981Z,15.70
2018-12-05T20:03:53.782Z,15.60
2018-12-05T20:06:22.559Z,15.60
2018-12-05T20:08:51.669Z,15.60
2018-12-05T20:11:20.256Z,15.50
2018-12-05T20:13:48.692Z,15.50
2018-12-05T20:16:18.763Z,15.50
2018-12-05T20:18:47.604Z,15.50
2018-12-05T20:21:16.483Z,15.50
2018-12-05T20:23:44.928Z,15.50
2018-12-05T20:26:13.375Z,15.40
2018-12-05T20:28:42.924Z,15.40
2018-12-05T20:31:12.555Z,15.40
2018-12-05T20:33:42.197Z,15.40
2018-12-05T20:36:10.699Z,15.30
2018-12-05T20:38:39.434Z,15.30
2018-12-05T20:41:09.366Z,15.30
2018-12-05T20:43:37.745Z,15.30
2018-12-05T20:46:06.242Z,15.30
2018-12-05T20:48:36.006Z,15.20
2018-12-05T20:51:04.658Z,15.20
2018-12-05T20:53:38.209Z,15.20
2018-12-05T20:56:08.068Z,15.20
2018-12-05T20:58:38.076Z,15.20
2018-12-05T21:01:06.457Z,15.20
2018-12-05T21:03:34.862Z,15.10
2018-12-05T21:06:04.279Z,15.10
2018-12-05T21:08:33.082Z,15.10
2018-12-05T21:11:01.507Z,15.10
2018-12-05T21:13:29.905Z,15.00
2018-12-05T21:15:58.398Z,15.00
2018-12-05T21:18:26.812Z,15.00
2018-12-05T21:20:55.464Z,15.00
2018-12-05T21:23:23.910Z,15.00
2018-12-05T21:25:52.505Z,15.00
2018-12-05T21:28:21.194Z,15.00
2018-12-05T21:30:49.624Z,14.90
2018-12-05T21:33:18.006Z,14.90
2018-12-05T21:35:49.493Z,14.90
2018-12-05T21:38:19.372Z,14.90
2018-12-05T21:40:47.686Z,14.90
2018-12-05T21:43:16.747Z,14.80
2018-12-05T21:45:45.525Z,14.80
2018-12-05T21:48:13.975Z,14.80
2018-12-05T21:50:42.372Z,14.80
2018-12-05T21:53:11.491Z,14.80
2018-12-05T21:55:39.985Z,14.80
2018-12-05T21:58:09.088Z,14.70
2018-12-05T22:00:37.574Z,14.70
2018-12-05T22:03:05.966Z,14.70
2018-12-05T22:05:34.410Z,14.70
2018-12-05T22:08:02.776Z,14.70
2018-12-05T22:10:31.469Z,14.70
2018-12-05T22:13:00.309Z,14.60
2018-12-05T22:15:28.782Z,14.60
2018-12-05T22:17:57.156Z,14.60
2018-12-05T22:20:25.855Z,14.60
2018-12-05T22:22:54.369Z,14.60
2018-12-05T22:25:22.733Z,14.60
2018-12-05T22:27:51.397Z,14.50
2018-12-05T22:30:21.025Z,14.50
2018-12-05T22:32:49.557Z,14.50
2018-12-05T22:35:18.627Z,14.40
2018-12-05T22:37:47.236Z,14.40
2018-12-05T22:40:17.076Z,14.40
2018-12-05T22:43:03.560Z,14.40
2018-12-05T22:45:34.212Z,14.40
2018-12-05T22:48:02.714Z,14.40
2018-12-05T22:50:31.149Z,14.40
2018-12-05T22:52:59.876Z,14.40
2018-12-05T22:55:28.392Z,14.30
2018-12-05T22:57:56.705Z,14.30
2018-12-05T23:00:26.535Z,14.30
2018-12-05T23:02:57.849Z,14.30
2018-12-05T23:05:26.453Z,14.30
2018-12-05T23:07:54.924Z,14.30
2018-12-05T23:10:23.788Z,14.20
2018-12-05T23:12:52.333Z,14.20
2018-12-05T23:15:21.250Z,14.20
2018-12-05T23:17:50.299Z,14.20
2018-12-05T23:20:18.977Z,14.20
2018-12-05T23:22:47.327Z,14.20
2018-12-05T23:25:15.933Z,14.10
2018-12-05T23:27:45.003Z,14.10
2018-12-05T23:30:13.742Z,14.10
2018-12-05T23:32:42.326Z,14.10
2018-12-05T23:35:11.064Z,14.10
2018-12-05T23:37:39.738Z,14.10
2018-12-05T23:40:08.565Z,14.10
2018-12-05T23:42:37.266Z,14.00
2018-12-05T23:45:05.979Z,14.00
2018-12-05T23:47:34.492Z,14.00
2018-12-05T23:50:02.879Z,14.00
2018-12-05T23:52:31.375Z,14.00
2018-12-05T23:54:59.848Z,14.00
2018-12-05T23:57:28.448Z,14.00
2018-12-05T23:59:57.046Z,14.00
